Nordanhav — OZ2125 — position and weather

sailwx.info

Track history (hours):
 
Tides and Currents Weather Stations Pressure Air Temp Water Temp Dewpoint Dewpoint Depression Visibility Wind Speed Wind Dir Waves Ship Positions

Nordanhav

Last reported at 2018-Feb-22 07:45 UTC. Time now 2018-Feb-22 10:54 UTC.
Position N 39°48' E 017°44'.

Length 128 m; draft 4.8 m.

Type: Cargo ship. MMSI: 231839000.

Date/timePositionNaut miles runAvg speedWind from/ knotsBaromVisibWave heightAir tempDewpointWater temp
2018-Feb-22 07:45N 39°48' E 017°44'4 9.2
2018-Feb-22 07:17N 39°52' E 017°46'10 8.9
2018-Feb-22 06:13N 40°00' E 017°53'2 9.2
2018-Feb-22 06:00N 40°02' E 017°54'4 8.5
2018-Feb-22 05:30N 40°05' E 017°58'  
2018-Feb-19 08:12N 40°04' E 017°59'0 0.0
2018-Feb-19 08:00N 40°04' E 017°59'0 0.0
2018-Feb-19 07:30N 40°04' E 017°59'0 0.0
2018-Feb-19 07:00N 40°04' E 017°59'0 0.0
2018-Feb-19 03:24N 40°04' E 017°59'0 0.0
2018-Feb-18 14:15N 40°03' E 017°59'2 2.5
2018-Feb-18 13:21N 40°03' E 017°56'1811.5
2018-Feb-18 11:46N 39°47' E 018°06'310.4
2018-Feb-18 11:28N 39°46' E 018°10'511.3
2018-Feb-18 11:01N 39°45' E 018°17'10 9.9
2018-Feb-18 10:02N 39°51' E 018°27'011.7
2018-Feb-18 10:00N 39°51' E 018°27'611.9
2018-Feb-18 09:30N 39°56' E 018°30'611.4
2018-Feb-18 08:59N 40°02' E 018°34'377 9.4
2018-Feb-16 16:46N 44°45' E 012°58'4 7.2
2018-Feb-16 16:16N 44°48' E 012°56'2 7.1
2018-Feb-16 16:00N 44°50' E 012°54'10 8.0
2018-Feb-16 14:46N 44°58' E 012°48'2 8.3
2018-Feb-16 14:30N 45°00' E 012°46'4 8.4
2018-Feb-16 13:59N 45°04' E 012°43'4 8.3
2018-Feb-16 13:30N 45°07' E 012°40'4 8.5
2018-Feb-16 13:01N 45°10' E 012°35'4 8.2
2018-Feb-16 12:30N 45°13' E 012°31'4 8.5
2018-Feb-16 12:00N 45°17' E 012°30'4 8.5
2018-Feb-16 11:30N 45°21' E 012°30'4 7.2
2018-Feb-16 11:00N 45°23' E 012°25'0 0.3
2018-Feb-16 10:28N 45°23' E 012°25'0 0.0
2018-Feb-16 09:58N 45°23' E 012°25'0 0.0
2018-Feb-16 09:28N 45°23' E 012°25'0 0.0
2018-Feb-16 08:58N 45°23' E 012°25'0 0.0
2018-Feb-16 08:28N 45°23' E 012°25'0 0.1
2018-Feb-16 07:58N 45°23' E 012°25'0 0.0
2018-Feb-16 07:28N 45°23' E 012°25'0 0.1
2018-Feb-16 06:58N 45°23' E 012°25'0 0.1
2018-Feb-16 06:28N 45°23' E 012°25'0 0.0
2018-Feb-16 05:58N 45°23' E 012°25'0 0.1
2018-Feb-16 05:28N 45°23' E 012°25'0 0.0
2018-Feb-16 04:55N 45°23' E 012°25'0 0.0
2018-Feb-16 04:28N 45°23' E 012°25'0 0.0
2018-Feb-16 03:58N 45°23' E 012°25'0 0.0
2018-Feb-16 03:28N 45°23' E 012°25'0 0.0
2018-Feb-16 02:58N 45°23' E 012°25'0 0.0
2018-Feb-16 02:28N 45°23' E 012°25'0 0.0
2018-Feb-16 01:58N 45°23' E 012°25'0 0.0
2018-Feb-16 01:28N 45°23' E 012°25'0 0.0
2018-Feb-16 00:58N 45°23' E 012°25'0 0.0
2018-Feb-16 00:28N 45°23' E 012°25'0 0.0
2018-Feb-15 23:58N 45°23' E 012°25'0 0.0
2018-Feb-15 23:28N 45°23' E 012°25'0 0.0
2018-Feb-15 22:58N 45°23' E 012°25'0 0.0
2018-Feb-15 22:28N 45°23' E 012°25'0 0.1
2018-Feb-15 21:58N 45°23' E 012°25'0 0.0
2018-Feb-15 21:28N 45°23' E 012°25'0 0.0
2018-Feb-15 20:58N 45°23' E 012°25'0 0.1
2018-Feb-15 20:28N 45°23' E 012°25'0 0.0
2018-Feb-15 19:58N 45°23' E 012°25'0 0.0
2018-Feb-15 19:28N 45°23' E 012°25'0 0.0
2018-Feb-15 18:58N 45°23' E 012°25'0 0.1
2018-Feb-15 18:28N 45°23' E 012°25'0 0.0
2018-Feb-15 17:58N 45°23' E 012°25'0 0.0
2018-Feb-15 17:28N 45°23' E 012°25'0 0.0
2018-Feb-15 16:58N 45°23' E 012°25'0 0.0
2018-Feb-15 16:28N 45°23' E 012°25'0 0.0
2018-Feb-15 16:01N 45°23' E 012°25'0 0.0
2018-Feb-15 15:30N 45°23' E 012°25'0 0.2
2018-Feb-15 14:59N 45°23' E 012°25'2 3.6
2018-Feb-15 14:30N 45°22' E 012°23'4 8.2
2018-Feb-15 14:00N 45°21' E 012°17'4 8.5
2018-Feb-15 13:29N 45°25' E 012°16'3 5.9
2018-Feb-15 13:00N 45°28' E 012°16'0 0.7
2018-Feb-15 12:26N 45°28' E 012°15'0 0.0
2018-Feb-15 11:50N 45°28' E 012°15'0 0.0
2018-Feb-15 07:32N 45°28' E 012°15'0 0.0
2018-Feb-15 07:26N 45°28' E 012°15'0 0.0
2018-Feb-14 23:56N 45°28' E 012°15'0 0.0
2018-Feb-14 21:56N 45°28' E 012°15'0 0.0
2018-Feb-14 21:20N 45°28' E 012°15'0 0.0
2018-Feb-14 20:44N 45°28' E 012°15'0 0.0
2018-Feb-14 20:20N 45°28' E 012°15'0 0.0
2018-Feb-14 19:20N 45°28' E 012°15'0 0.0
2018-Feb-14 18:50N 45°28' E 012°15'0 0.0
2018-Feb-14 18:26N 45°28' E 012°15'0 0.0
2018-Feb-14 12:26N 45°28' E 012°15'0 0.0
2018-Feb-14 04:41N 45°28' E 012°15'0 0.0
2018-Feb-14 04:29N 45°28' E 012°15'0 0.0
2018-Feb-14 03:53N 45°28' E 012°15'0 0.0
2018-Feb-14 03:28N 45°28' E 012°15'0 0.0
2018-Feb-14 02:58N 45°28' E 012°15'0 0.0
2018-Feb-14 02:16N 45°28' E 012°15'0 0.0
2018-Feb-14 01:58N 45°28' E 012°15'0 0.0
2018-Feb-13 23:22N 45°28' E 012°15'0 0.0
2018-Feb-13 22:58N 45°28' E 012°15'0 0.0
2018-Feb-13 22:28N 45°28' E 012°15'0 0.0
2018-Feb-13 21:52N 45°28' E 012°15'0 0.0
2018-Feb-13 21:16N 45°28' E 012°15'0 0.0
2018-Feb-13 20:58N 45°28' E 012°15'0 0.0
2018-Feb-13 20:28N 45°28' E 012°15'0 0.0
2018-Feb-13 19:58N 45°28' E 012°15'0 0.0
2018-Feb-13 19:28N 45°28' E 012°15'0 0.0
2018-Feb-13 18:58N 45°28' E 012°15'0 0.0
2018-Feb-13 16:22N 45°28' E 012°15'0 0.0
2018-Feb-13 11:40N 45°28' E 012°15'0 0.0
2018-Feb-13 11:28N 45°28' E 012°15'0 0.0
2018-Feb-13 06:28N 45°28' E 012°15'0 0.0
2018-Feb-13 05:58N 45°28' E 012°15'0 0.0
2018-Feb-13 05:25N 45°28' E 012°15'0 0.0
2018-Feb-13 04:55N 45°28' E 012°15'0 0.0
2018-Feb-13 04:13N 45°28' E 012°15'0 0.0
2018-Feb-13 03:55N 45°28' E 012°15'0 0.0
2018-Feb-13 03:25N 45°28' E 012°15'0 0.0
2018-Feb-13 02:49N 45°28' E 012°15'0 0.0
2018-Feb-13 02:25N 45°28' E 012°15'0 0.0
2018-Feb-13 01:58N 45°28' E 012°15'0 0.0
2018-Feb-13 01:25N 45°28' E 012°15'0 0.0
2018-Feb-13 00:49N 45°28' E 012°15'0 0.0
2018-Feb-13 00:25N 45°28' E 012°15'0 0.0
2018-Feb-12 23:55N 45°28' E 012°15'0 0.0
2018-Feb-12 23:25N 45°28' E 012°15'0 0.0
2018-Feb-12 22:55N 45°28' E 012°15'0 0.0
2018-Feb-12 22:25N 45°28' E 012°15'0 0.0
2018-Feb-12 21:55N 45°28' E 012°15'0 0.0
2018-Feb-12 21:25N 45°28' E 012°15'0 0.0
2018-Feb-12 20:49N 45°28' E 012°15'0 0.0
2018-Feb-12 20:19N 45°28' E 012°15'0 0.0
2018-Feb-12 19:55N 45°28' E 012°15'0 0.0
2018-Feb-12 19:25N 45°28' E 012°15'0 0.0
2018-Feb-12 18:55N 45°28' E 012°15'0 0.0
2018-Feb-12 18:25N 45°28' E 012°15'0 0.0
2018-Feb-12 17:55N 45°28' E 012°15'0 0.0
2018-Feb-12 17:19N 45°28' E 012°15'0 0.0
2018-Feb-12 16:43N 45°28' E 012°15'0 0.0
2018-Feb-12 16:25N 45°28' E 012°15'0 0.0
2018-Feb-12 15:54N 45°28' E 012°15'0 0.0
2018-Feb-12 15:12N 45°28' E 012°15'0 0.0
2018-Feb-12 15:00N 45°28' E 012°15'0 0.0
2018-Feb-12 12:00N 45°28' E 012°15'0 0.0
2018-Feb-12 11:30N 45°28' E 012°15'0 0.0
2018-Feb-12 11:00N 45°28' E 012°15'0 0.0
2018-Feb-12 10:18N 45°28' E 012°15'  
Track history (hours):
 
Tides and Currents Weather Stations Pressure Air Temp Water Temp Dewpoint Dewpoint Depression Visibility Wind Speed Wind Dir Waves Ship Positions

Nordanhav

Last reported at 2018-Feb-22 07:45 UTC. Time now 2018-Feb-22 10:54 UTC.
Position N 39°48' E 017°44'.

Length 128 m; draft 4.8 m.

Type: Cargo ship. MMSI: 231839000.

Date/timePositionNaut miles runAvg speedWind from/ knotsBaromVisibWave heightAir tempDewpointWater temp
2018-Feb-22 07:45N 39°48' E 017°44'4 9.2
2018-Feb-22 07:17N 39°52' E 017°46'10 8.9
2018-Feb-22 06:13N 40°00' E 017°53'2 9.2
2018-Feb-22 06:00N 40°02' E 017°54'4 8.5
2018-Feb-22 05:30N 40°05' E 017°58'  
2018-Feb-19 08:12N 40°04' E 017°59'0 0.0
2018-Feb-19 08:00N 40°04' E 017°59'0 0.0
2018-Feb-19 07:30N 40°04' E 017°59'0 0.0
2018-Feb-19 07:00N 40°04' E 017°59'0 0.0
2018-Feb-19 03:24N 40°04' E 017°59'0 0.0
2018-Feb-18 14:15N 40°03' E 017°59'2 2.5
2018-Feb-18 13:21N 40°03' E 017°56'1811.5
2018-Feb-18 11:46N 39°47' E 018°06'310.4
2018-Feb-18 11:28N 39°46' E 018°10'511.3
2018-Feb-18 11:01N 39°45' E 018°17'10 9.9
2018-Feb-18 10:02N 39°51' E 018°27'011.7
2018-Feb-18 10:00N 39°51' E 018°27'611.9
2018-Feb-18 09:30N 39°56' E 018°30'611.4
2018-Feb-18 08:59N 40°02' E 018°34'377 9.4
2018-Feb-16 16:46N 44°45' E 012°58'4 7.2
2018-Feb-16 16:16N 44°48' E 012°56'2 7.1
2018-Feb-16 16:00N 44°50' E 012°54'10 8.0
2018-Feb-16 14:46N 44°58' E 012°48'2 8.3
2018-Feb-16 14:30N 45°00' E 012°46'4 8.4
2018-Feb-16 13:59N 45°04' E 012°43'4 8.3
2018-Feb-16 13:30N 45°07' E 012°40'4 8.5
2018-Feb-16 13:01N 45°10' E 012°35'4 8.2
2018-Feb-16 12:30N 45°13' E 012°31'4 8.5
2018-Feb-16 12:00N 45°17' E 012°30'4 8.5
2018-Feb-16 11:30N 45°21' E 012°30'4 7.2
2018-Feb-16 11:00N 45°23' E 012°25'0 0.3
2018-Feb-16 10:28N 45°23' E 012°25'0 0.0
2018-Feb-16 09:58N 45°23' E 012°25'0 0.0
2018-Feb-16 09:28N 45°23' E 012°25'0 0.0
2018-Feb-16 08:58N 45°23' E 012°25'0 0.0
2018-Feb-16 08:28N 45°23' E 012°25'0 0.1
2018-Feb-16 07:58N 45°23' E 012°25'0 0.0
2018-Feb-16 07:28N 45°23' E 012°25'0 0.1
2018-Feb-16 06:58N 45°23' E 012°25'0 0.1
2018-Feb-16 06:28N 45°23' E 012°25'0 0.0
2018-Feb-16 05:58N 45°23' E 012°25'0 0.1
2018-Feb-16 05:28N 45°23' E 012°25'0 0.0
2018-Feb-16 04:55N 45°23' E 012°25'0 0.0
2018-Feb-16 04:28N 45°23' E 012°25'0 0.0
2018-Feb-16 03:58N 45°23' E 012°25'0 0.0
2018-Feb-16 03:28N 45°23' E 012°25'0 0.0
2018-Feb-16 02:58N 45°23' E 012°25'0 0.0
2018-Feb-16 02:28N 45°23' E 012°25'0 0.0
2018-Feb-16 01:58N 45°23' E 012°25'0 0.0
2018-Feb-16 01:28N 45°23' E 012°25'0 0.0
2018-Feb-16 00:58N 45°23' E 012°25'0 0.0
2018-Feb-16 00:28N 45°23' E 012°25'0 0.0
2018-Feb-15 23:58N 45°23' E 012°25'0 0.0
2018-Feb-15 23:28N 45°23' E 012°25'0 0.0
2018-Feb-15 22:58N 45°23' E 012°25'0 0.0
2018-Feb-15 22:28N 45°23' E 012°25'0 0.1
2018-Feb-15 21:58N 45°23' E 012°25'0 0.0
2018-Feb-15 21:28N 45°23' E 012°25'0 0.0
2018-Feb-15 20:58N 45°23' E 012°25'0 0.1
2018-Feb-15 20:28N 45°23' E 012°25'0 0.0
2018-Feb-15 19:58N 45°23' E 012°25'0 0.0
2018-Feb-15 19:28N 45°23' E 012°25'0 0.0
2018-Feb-15 18:58N 45°23' E 012°25'0 0.1
2018-Feb-15 18:28N 45°23' E 012°25'0 0.0
2018-Feb-15 17:58N 45°23' E 012°25'0 0.0
2018-Feb-15 17:28N 45°23' E 012°25'0 0.0
2018-Feb-15 16:58N 45°23' E 012°25'0 0.0
2018-Feb-15 16:28N 45°23' E 012°25'0 0.0
2018-Feb-15 16:01N 45°23' E 012°25'0 0.0
2018-Feb-15 15:30N 45°23' E 012°25'0 0.2
2018-Feb-15 14:59N 45°23' E 012°25'2 3.6
2018-Feb-15 14:30N 45°22' E 012°23'4 8.2
2018-Feb-15 14:00N 45°21' E 012°17'4 8.5
2018-Feb-15 13:29N 45°25' E 012°16'3 5.9
2018-Feb-15 13:00N 45°28' E 012°16'0 0.7
2018-Feb-15 12:26N 45°28' E 012°15'0 0.0
2018-Feb-15 11:50N 45°28' E 012°15'0 0.0
2018-Feb-15 07:32N 45°28' E 012°15'0 0.0
2018-Feb-15 07:26N 45°28' E 012°15'0 0.0
2018-Feb-14 23:56N 45°28' E 012°15'0 0.0
2018-Feb-14 21:56N 45°28' E 012°15'0 0.0
2018-Feb-14 21:20N 45°28' E 012°15'0 0.0
2018-Feb-14 20:44N 45°28' E 012°15'0 0.0
2018-Feb-14 20:20N 45°28' E 012°15'0 0.0
2018-Feb-14 19:20N 45°28' E 012°15'0 0.0
2018-Feb-14 18:50N 45°28' E 012°15'0 0.0
2018-Feb-14 18:26N 45°28' E 012°15'0 0.0
2018-Feb-14 12:26N 45°28' E 012°15'0 0.0
2018-Feb-14 04:41N 45°28' E 012°15'0 0.0
2018-Feb-14 04:29N 45°28' E 012°15'0 0.0
2018-Feb-14 03:53N 45°28' E 012°15'0 0.0
2018-Feb-14 03:28N 45°28' E 012°15'0 0.0
2018-Feb-14 02:58N 45°28' E 012°15'0 0.0
2018-Feb-14 02:16N 45°28' E 012°15'0 0.0
2018-Feb-14 01:58N 45°28' E 012°15'0 0.0
2018-Feb-13 23:22N 45°28' E 012°15'0 0.0
2018-Feb-13 22:58N 45°28' E 012°15'0 0.0
2018-Feb-13 22:28N 45°28' E 012°15'0 0.0
2018-Feb-13 21:52N 45°28' E 012°15'0 0.0
2018-Feb-13 21:16N 45°28' E 012°15'0 0.0
2018-Feb-13 20:58N 45°28' E 012°15'0 0.0
2018-Feb-13 20:28N 45°28' E 012°15'0 0.0
2018-Feb-13 19:58N 45°28' E 012°15'0 0.0
2018-Feb-13 19:28N 45°28' E 012°15'0 0.0
2018-Feb-13 18:58N 45°28' E 012°15'0 0.0
2018-Feb-13 16:22N 45°28' E 012°15'0 0.0
2018-Feb-13 11:40N 45°28' E 012°15'0 0.0
2018-Feb-13 11:28N 45°28' E 012°15'0 0.0
2018-Feb-13 06:28N 45°28' E 012°15'0 0.0
2018-Feb-13 05:58N 45°28' E 012°15'0 0.0
2018-Feb-13 05:25N 45°28' E 012°15'0 0.0
2018-Feb-13 04:55N 45°28' E 012°15'0 0.0
2018-Feb-13 04:13N 45°28' E 012°15'0 0.0
2018-Feb-13 03:55N 45°28' E 012°15'0 0.0
2018-Feb-13 03:25N 45°28' E 012°15'0 0.0
2018-Feb-13 02:49N 45°28' E 012°15'0 0.0
2018-Feb-13 02:25N 45°28' E 012°15'0 0.0
2018-Feb-13 01:58N 45°28' E 012°15'0 0.0
2018-Feb-13 01:25N 45°28' E 012°15'0 0.0
2018-Feb-13 00:49N 45°28' E 012°15'0 0.0
2018-Feb-13 00:25N 45°28' E 012°15'0 0.0
2018-Feb-12 23:55N 45°28' E 012°15'0 0.0
2018-Feb-12 23:25N 45°28' E 012°15'0 0.0
2018-Feb-12 22:55N 45°28' E 012°15'0 0.0
2018-Feb-12 22:25N 45°28' E 012°15'0 0.0
2018-Feb-12 21:55N 45°28' E 012°15'0 0.0
2018-Feb-12 21:25N 45°28' E 012°15'0 0.0
2018-Feb-12 20:49N 45°28' E 012°15'0 0.0
2018-Feb-12 20:19N 45°28' E 012°15'0 0.0
2018-Feb-12 19:55N 45°28' E 012°15'0 0.0
2018-Feb-12 19:25N 45°28' E 012°15'0 0.0
2018-Feb-12 18:55N 45°28' E 012°15'0 0.0
2018-Feb-12 18:25N 45°28' E 012°15'0 0.0
2018-Feb-12 17:55N 45°28' E 012°15'0 0.0
2018-Feb-12 17:19N 45°28' E 012°15'0 0.0
2018-Feb-12 16:43N 45°28' E 012°15'0 0.0
2018-Feb-12 16:25N 45°28' E 012°15'0 0.0
2018-Feb-12 15:54N 45°28' E 012°15'0 0.0
2018-Feb-12 15:12N 45°28' E 012°15'0 0.0
2018-Feb-12 15:00N 45°28' E 012°15'0 0.0
2018-Feb-12 12:00N 45°28' E 012°15'0 0.0
2018-Feb-12 11:30N 45°28' E 012°15'0 0.0
2018-Feb-12 11:00N 45°28' E 012°15'0 0.0
2018-Feb-12 10:18N 45°28' E 012°15'  

Dump ship's entire track history